Time;durP1;ratioP1;P1;durP2;ratioP2;P2;SDS_P1;SDS_P2;PMS_P1;PMS_P2;Temp;Humidity;BMP_temperature;BMP_pressure;BME280_temperature;BME280_humidity;BME280_pressure;Samples;Min_cycle;Max_cycle;Signal;HPM_P1;HPM_P2
2023/08/02 00:01:08;;;;;;;3.83;1.75;;;20.30;62.70;22.00;99900.00;;;;5048760;28;20215;-78
2023/08/02 00:03:35;;;;;;;4.35;1.67;;;20.30;62.70;22.00;99896.00;;;;5048387;28;20211;-77
2023/08/02 00:06:03;;;;;;;4.57;1.58;;;20.30;62.60;22.00;99899.00;;;;5048896;28;20238;-77
2023/08/02 00:08:30;;;;;;;2.88;1.77;;;20.30;62.60;22.00;99895.00;;;;5048750;28;20593;-78
2023/08/02 00:10:58;;;;;;;4.47;1.55;;;20.30;62.60;22.00;99895.00;;;;5048450;28;20234;-77
2023/08/02 00:13:24;;;;;;;7.45;2.00;;;20.30;62.70;22.00;99904.00;;;;5048029;28;20204;-77
2023/08/02 00:15:52;;;;;;;4.20;1.85;;;20.40;62.80;22.00;99913.00;;;;5049717;28;20207;-77
2023/08/02 00:18:19;;;;;;;2.75;2.00;;;20.40;62.90;22.00;99908.00;;;;5068624;28;20584;-77
2023/08/02 00:20:47;;;;;;;3.90;2.20;;;20.30;62.80;22.00;99910.00;;;;5067715;28;20206;-77
2023/08/02 00:23:15;;;;;;;4.68;2.25;;;20.40;62.90;22.00;99908.00;;;;5067995;28;20582;-77
2023/08/02 00:25:42;;;;;;;6.07;2.00;;;20.40;62.90;22.00;99902.00;;;;5067252;28;20214;-77
2023/08/02 00:28:09;;;;;;;6.40;2.40;;;20.30;62.80;22.00;99893.00;;;;5068248;28;20666;-77
2023/08/02 00:30:45;;;;;;;5.72;2.40;;;20.30;62.90;22.00;99898.00;;;;5068006;28;20213;-77
2023/08/02 00:33:12;;;;;;;3.72;2.50;;;20.40;63.20;22.00;99890.00;;;;5068432;28;20677;-77
2023/08/02 00:35:44;;;;;;;7.63;2.97;;;20.40;63.00;22.00;99880.00;;;;5066116;28;20223;-77
2023/08/02 00:38:11;;;;;;;3.17;2.22;;;20.40;63.10;22.00;99870.00;;;;5068269;28;20212;-77
2023/08/02 00:40:40;;;;;;;7.18;2.17;;;20.30;63.00;22.00;99874.00;;;;5067811;28;20210;-77
2023/08/02 00:43:08;;;;;;;5.68;2.40;;;20.30;63.10;22.00;99884.00;;;;5067666;28;20682;-77
2023/08/02 00:45:36;;;;;;;4.93;2.58;;;20.30;63.10;22.00;99884.00;;;;5067918;28;20261;-78
2023/08/02 00:48:05;;;;;;;5.25;2.45;;;20.30;63.00;22.00;99885.00;;;;5068471;28;20773;-77
2023/08/02 00:50:35;;;;;;;4.88;2.10;;;20.30;63.00;21.90;99881.00;;;;5068445;28;20195;-77
2023/08/02 00:53:04;;;;;;;3.85;2.28;;;20.30;63.10;21.90;99869.00;;;;5067347;28;20474;-77
2023/08/02 00:55:31;;;;;;;8.15;2.80;;;20.30;63.00;21.90;99871.00;;;;5067623;28;20207;-78
2023/08/02 00:58:00;;;;;;;4.53;2.00;;;20.30;63.00;21.90;99873.00;;;;5067394;28;20207;-78
2023/08/02 01:00:27;;;;;;;4.97;2.42;;;20.20;63.00;21.90;99869.00;;;;5068140;28;20219;-77
2023/08/02 01:02:55;;;;;;;6.78;2.47;;;20.20;63.10;21.90;99861.00;;;;5067404;28;20205;-78
2023/08/02 01:05:34;;;;;;;5.40;2.75;;;20.20;63.10;21.80;99862.00;;;;5068210;28;20202;-77
2023/08/02 01:08:06;;;;;;;3.15;2.30;;;20.20;63.20;21.80;99857.00;;;;5067382;28;20198;-77
2023/08/02 01:10:42;;;;;;;5.05;2.63;;;20.20;63.20;21.80;99873.00;;;;5067944;28;20643;-77
2023/08/02 01:13:15;;;;;;;5.05;2.42;;;20.20;63.20;21.70;99873.00;;;;5067802;28;20209;-78
2023/08/02 01:15:43;;;;;;;3.78;1.75;;;20.10;63.20;21.80;99872.00;;;;5068741;28;20211;-77
2023/08/02 01:18:11;;;;;;;6.60;2.63;;;20.10;63.30;21.80;99878.00;;;;5068069;28;20553;-77
2023/08/02 01:20:39;;;;;;;5.78;2.20;;;20.10;63.30;21.70;99865.00;;;;5055125;28;20880;-78
2023/08/02 01:23:06;;;;;;;4.57;1.98;;;20.00;63.30;21.70;99872.00;;;;5059832;28;20601;-78
2023/08/02 01:25:34;;;;;;;5.68;2.42;;;20.10;63.40;21.70;99866.00;;;;5067167;28;20203;-77
2023/08/02 01:28:10;;;;;;;3.38;1.90;;;20.00;63.50;21.70;99862.00;;;;5067107;28;20195;-77
2023/08/02 01:30:39;;;;;;;4.05;2.17;;;20.00;63.60;21.70;99859.00;;;;5056000;28;20218;-77
2023/08/02 01:33:06;;;;;;;5.95;2.17;;;20.00;63.60;21.70;99870.00;;;;5047239;28;20220;-77
2023/08/02 01:35:35;;;;;;;5.65;2.58;;;20.00;63.70;21.70;99859.00;;;;5047530;28;20230;-77
2023/08/02 01:38:04;;;;;;;4.55;2.20;;;20.00;63.70;21.70;99853.00;;;;5049255;28;20570;-77
2023/08/02 01:40:31;;;;;;;3.15;2.10;;;20.00;63.70;21.70;99845.00;;;;5051434;28;20227;-77
2023/08/02 01:42:58;;;;;;;5.47;2.35;;;20.00;63.70;21.70;99848.00;;;;5051332;28;20234;-77
2023/08/02 01:45:25;;;;;;;3.78;1.83;;;20.00;63.80;21.70;99832.00;;;;5050256;28;20239;-77
2023/08/02 01:47:52;;;;;;;3.45;2.20;;;20.00;63.90;21.70;99829.00;;;;5051598;28;20214;-78
2023/08/02 01:50:19;;;;;;;3.03;1.85;;;20.00;64.00;21.70;99833.00;;;;5051240;28;20768;-78
2023/08/02 01:52:48;;;;;;;8.40;2.20;;;20.00;64.00;21.70;99829.00;;;;5069596;28;20219;-78
2023/08/02 01:55:18;;;;;;;4.78;2.35;;;20.00;64.10;21.70;99833.00;;;;5071005;28;20252;-78
2023/08/02 01:57:45;;;;;;;4.13;2.17;;;20.00;64.20;21.70;99824.00;;;;5070815;28;20624;-78
2023/08/02 02:00:13;;;;;;;3.95;2.15;;;20.00;64.20;21.70;99808.00;;;;5071305;28;20250;-77
2023/08/02 02:02:40;;;;;;;4.22;2.15;;;20.00;64.20;21.70;99802.00;;;;5071964;28;20525;-77
2023/08/02 02:05:08;;;;;;;2.20;1.80;;;20.00;64.20;21.70;99795.00;;;;5069626;28;20215;-78
2023/08/02 02:07:35;;;;;;;2.97;1.77;;;20.00;64.20;21.70;99787.00;;;;5070636;28;20213;-78
2023/08/02 02:10:02;;;;;;;4.95;2.08;;;20.00;64.20;21.70;99788.00;;;;5070445;28;20207;-78
2023/08/02 02:12:30;;;;;;;5.53;2.10;;;20.00;64.30;21.70;99783.00;;;;5070947;28;20226;-77
2023/08/02 02:14:57;;;;;;;3.55;2.28;;;20.00;64.40;21.70;99785.00;;;;5069772;28;20195;-77
2023/08/02 02:17:24;;;;;;;6.78;2.47;;;20.10;64.40;21.70;99778.00;;;;5070257;28;20203;-77
2023/08/02 02:19:51;;;;;;;5.10;2.15;;;20.00;64.30;21.70;99767.00;;;;5070541;28;20355;-78
2023/08/02 02:22:18;;;;;;;3.53;2.05;;;20.10;64.40;21.70;99751.00;;;;5069925;28;20673;-78
2023/08/02 02:24:45;;;;;;;4.55;1.85;;;20.10;64.50;21.70;99737.00;;;;5069288;28;20206;-78
2023/08/02 02:27:11;;;;;;;6.63;2.10;;;20.00;64.40;21.70;99729.00;;;;5070668;28;20670;-78
2023/08/02 02:29:40;;;;;;;5.20;1.80;;;20.10;64.50;21.70;99726.00;;;;5070342;28;20218;-77
2023/08/02 02:32:07;;;;;;;5.63;1.92;;;20.00;64.50;21.70;99738.00;;;;5069502;28;20235;-78
2023/08/02 02:34:34;;;;;;;3.25;1.92;;;20.10;64.50;21.70;99739.00;;;;5070087;28;20210;-78
2023/08/02 02:37:01;;;;;;;5.80;1.80;;;20.00;64.50;21.70;99719.00;;;;5069703;28;20724;-78
2023/08/02 02:39:28;;;;;;;4.65;2.58;;;20.10;64.50;21.70;99732.00;;;;5069549;28;20214;-77
2023/08/02 02:41:55;;;;;;;6.82;2.05;;;20.10;64.60;21.70;99720.00;;;;5069860;28;20210;-78
2023/08/02 02:44:22;;;;;;;3.88;2.08;;;20.10;64.60;21.70;99717.00;;;;5070069;28;20202;-77
2023/08/02 02:46:50;;;;;;;3.50;2.03;;;20.10;64.60;21.70;99713.00;;;;5069689;28;20245;-78
2023/08/02 02:49:17;;;;;;;6.03;1.95;;;20.00;64.50;21.70;99715.00;;;;5069965;28;20218;-77
2023/08/02 02:51:44;;;;;;;9.35;2.70;;;20.00;64.60;21.70;99716.00;;;;5069429;28;20214;-77
2023/08/02 02:54:11;;;;;;;5.15;2.03;;;20.10;64.70;21.70;99708.00;;;;5069662;28;20545;-78
2023/08/02 02:56:37;;;;;;;5.38;1.92;;;20.00;64.60;21.70;99699.00;;;;5049494;28;20211;-77
2023/08/02 02:59:04;;;;;;;4.38;1.63;;;20.10;64.70;21.70;99688.00;;;;5049684;28;20203;-77
2023/08/02 03:01:31;;;;;;;4.72;1.67;;;20.10;64.80;21.70;99686.00;;;;5049863;28;20674;-77
2023/08/02 03:03:59;;;;;;;3.10;1.55;;;20.10;64.80;21.70;99687.00;;;;5049114;28;20203;-78
2023/08/02 03:06:26;;;;;;;3.40;1.75;;;20.10;64.70;21.70;99690.00;;;;5049755;28;20208;-78
2023/08/02 03:08:53;;;;;;;6.50;2.47;;;20.10;64.80;21.70;99680.00;;;;5049245;28;20196;-77
2023/08/02 03:11:20;;;;;;;3.55;1.40;;;20.10;64.70;21.70;99675.00;;;;5050095;28;20203;-77
2023/08/02 03:13:47;;;;;;;2.63;1.27;;;20.10;64.80;21.70;99680.00;;;;5049153;28;20199;-77
2023/08/02 03:16:14;;;;;;;4.53;1.55;;;20.10;64.80;21.70;99674.00;;;;5051572;28;20581;-77
2023/08/02 03:18:41;;;;;;;2.42;1.98;;;20.10;64.80;21.70;99659.00;;;;5069196;28;20198;-78
2023/08/02 03:21:09;;;;;;;3.42;1.52;;;20.10;64.80;21.70;99653.00;;;;5069639;28;20198;-78
2023/08/02 03:23:36;;;;;;;2.88;2.05;;;20.10;64.90;21.70;99653.00;;;;5068868;28;20203;-77
2023/08/02 03:26:03;;;;;;;3.75;1.80;;;20.10;64.80;21.70;99638.00;;;;5068633;28;20209;-78
2023/08/02 03:28:30;;;;;;;6.82;1.88;;;20.10;64.80;21.70;99630.00;;;;5067103;28;20207;-77
2023/08/02 03:30:57;;;;;;;4.82;1.80;;;20.00;64.80;21.70;99625.00;;;;5049576;28;20211;-77
2023/08/02 03:33:24;;;;;;;3.58;2.10;;;20.10;65.00;21.70;99626.00;;;;5049352;28;20227;-78
2023/08/02 03:35:51;;;;;;;4.47;1.90;;;20.10;65.00;21.70;99628.00;;;;5049068;28;20231;-77
2023/08/02 03:38:19;;;;;;;2.30;1.90;;;20.10;65.00;21.70;99626.00;;;;5048977;28;20203;-78
2023/08/02 03:40:46;;;;;;;4.63;1.83;;;20.10;65.00;21.70;99618.00;;;;5048498;28;20192;-77
2023/08/02 03:43:13;;;;;;;2.75;1.50;;;20.10;65.00;21.70;99608.00;;;;5049258;28;20204;-78
2023/08/02 03:45:40;;;;;;;4.93;2.25;;;20.10;65.00;21.70;99597.00;;;;5049624;28;20251;-77
2023/08/02 03:48:07;;;;;;;4.65;2.08;;;20.10;65.10;21.80;99597.00;;;;5048704;28;20204;-78
2023/08/02 03:50:34;;;;;;;3.55;1.70;;;20.10;65.10;21.80;99593.00;;;;5049641;28;20207;-78
2023/08/02 03:53:01;;;;;;;2.60;1.50;;;20.10;65.10;21.80;99596.00;;;;5068650;28;20230;-78
2023/08/02 03:55:30;;;;;;;3.13;1.60;;;20.20;65.20;21.70;99598.00;;;;5068562;28;20195;-78
2023/08/02 03:57:56;;;;;;;2.72;1.65;;;20.20;65.20;21.70;99584.00;;;;5068132;28;20210;-78
2023/08/02 04:00:23;;;;;;;3.25;2.00;;;20.10;65.10;21.80;99576.00;;;;5068017;28;20214;-78
2023/08/02 04:02:50;;;;;;;5.18;2.08;;;20.20;65.10;21.70;99570.00;;;;5067741;28;20211;-78
2023/08/02 04:05:17;;;;;;;3.13;1.60;;;20.20;65.10;21.80;99565.00;;;;5068248;28;20202;-78
2023/08/02 04:07:44;;;;;;;3.80;1.60;;;20.20;65.20;21.80;99549.00;;;;5068346;28;20588;-77
2023/08/02 04:10:11;;;;;;;3.70;1.50;;;20.20;65.20;21.80;99552.00;;;;5068391;28;20210;-78
2023/08/02 04:12:40;;;;;;;4.53;1.63;;;20.20;65.30;21.80;99549.00;;;;5068288;28;20227;-78
2023/08/02 04:15:08;;;;;;;3.05;2.05;;;20.20;65.30;21.80;99556.00;;;;5067646;28;20199;-77
2023/08/02 04:17:35;;;;;;;6.13;2.05;;;20.20;65.40;21.80;99560.00;;;;5068486;28;20203;-78
2023/08/02 04:20:03;;;;;;;6.88;2.03;;;20.20;65.40;21.80;99533.00;;;;5061184;28;20439;-78
2023/08/02 04:22:31;;;;;;;4.13;1.75;;;20.20;65.40;21.80;99541.00;;;;5054951;28;20251;-78
2023/08/02 04:24:58;;;;;;;5.20;2.08;;;20.20;65.40;21.80;99523.00;;;;5067189;28;20209;-78
2023/08/02 04:27:25;;;;;;;5.57;2.03;;;20.20;65.40;21.80;99535.00;;;;5068113;28;20206;-78
2023/08/02 04:29:53;;;;;;;2.25;1.88;;;20.20;65.40;21.80;99527.00;;;;5067746;28;20198;-78
2023/08/02 04:32:20;;;;;;;3.00;1.70;;;20.20;65.40;21.80;99513.00;;;;5068164;28;20226;-78
2023/08/02 04:34:47;;;;;;;1.88;1.52;;;20.30;65.50;21.90;99502.00;;;;5068304;28;20573;-77
2023/08/02 04:37:14;;;;;;;2.67;1.80;;;20.30;65.50;21.90;99498.00;;;;5058976;28;20223;-78
2023/08/02 04:39:40;;;;;;;1.98;1.63;;;20.30;65.50;21.90;99492.00;;;;5048395;28;20215;-78
2023/08/02 04:42:07;;;;;;;2.97;1.80;;;20.30;65.50;21.90;99479.00;;;;5048241;28;20216;-78
2023/08/02 04:44:34;;;;;;;5.20;2.35;;;20.30;65.50;21.90;99470.00;;;;5047747;28;20215;-78
2023/08/02 04:47:03;;;;;;;3.85;1.80;;;20.30;65.50;21.90;99461.00;;;;5047726;28;20235;-78
2023/08/02 04:49:30;;;;;;;3.45;1.85;;;20.40;65.60;22.00;99462.00;;;;5047963;28;20675;-78
2023/08/02 04:51:56;;;;;;;4.60;2.38;;;20.40;65.60;22.00;99460.00;;;;5046964;28;20211;-77
2023/08/02 04:54:23;;;;;;;3.67;1.90;;;20.40;65.60;22.00;99460.00;;;;5065397;28;20210;-78
2023/08/02 04:56:50;;;;;;;6.53;1.60;;;20.40;65.60;22.00;99443.00;;;;5067694;28;20213;-78
2023/08/02 04:59:17;;;;;;;3.35;1.20;;;20.40;65.50;22.00;99438.00;;;;5067901;28;20666;-77
2023/08/02 05:01:44;;;;;;;3.88;1.88;;;20.40;65.50;22.00;99428.00;;;;5068079;28;20210;-78
2023/08/02 05:04:13;;;;;;;2.42;1.83;;;20.50;65.60;22.00;99420.00;;;;5067707;28;20199;-78
2023/08/02 05:06:40;;;;;;;3.17;1.58;;;20.50;65.70;22.10;99409.00;;;;5067680;28;20202;-78
2023/08/02 05:09:07;;;;;;;4.35;1.80;;;20.50;65.60;22.10;99402.00;;;;5067458;28;20697;-78
2023/08/02 05:11:34;;;;;;;2.65;1.75;;;20.50;65.60;22.10;99398.00;;;;5068119;28;20199;-78
2023/08/02 05:14:01;;;;;;;3.00;1.92;;;20.50;65.70;22.10;99404.00;;;;5071471;28;20234;-78
2023/08/02 05:16:28;;;;;;;2.38;1.98;;;20.50;65.70;22.10;99411.00;;;;5071104;28;20191;-78
2023/08/02 05:18:55;;;;;;;2.30;1.70;;;20.50;65.70;22.10;99405.00;;;;5071351;28;20252;-78
2023/08/02 05:21:24;;;;;;;2.38;1.60;;;20.50;65.80;22.10;99402.00;;;;5071516;28;20207;-78
2023/08/02 05:23:51;;;;;;;3.45;1.88;;;20.60;65.80;22.10;99397.00;;;;5071360;28;20202;-78
2023/08/02 05:26:18;;;;;;;2.63;1.92;;;20.60;65.90;22.10;99393.00;;;;5071410;28;20213;-78
2023/08/02 05:28:44;;;;;;;3.38;2.08;;;20.60;65.90;22.20;99383.00;;;;5070015;28;20206;-77
2023/08/02 05:31:13;;;;;;;2.70;1.48;;;20.60;65.80;22.20;99380.00;;;;5071652;28;20222;-77
2023/08/02 05:33:41;;;;;;;7.20;1.92;;;20.60;65.90;22.20;99372.00;;;;5071434;28;20681;-78
2023/08/02 05:36:11;;;;;;;2.35;1.67;;;20.60;65.90;22.20;99352.00;;;;5070891;28;20227;-78
2023/08/02 05:38:40;;;;;;;1.90;1.60;;;20.60;65.80;22.20;99354.00;;;;5070871;28;20280;-78
2023/08/02 05:41:07;;;;;;;4.22;1.83;;;20.60;65.90;22.20;99345.00;;;;5071626;28;20294;-77
2023/08/02 05:43:34;;;;;;;3.15;1.85;;;20.60;65.90;22.20;99341.00;;;;5071134;28;20697;-78
2023/08/02 05:46:02;;;;;;;2.58;1.60;;;20.60;65.90;22.20;99332.00;;;;5069564;28;20245;-78
2023/08/02 05:48:28;;;;;;;3.40;1.92;;;20.60;65.90;22.20;99334.00;;;;5070449;28;20207;-78
2023/08/02 05:50:55;;;;;;;3.50;2.10;;;20.60;66.00;22.20;99321.00;;;;5070950;28;20214;-78
2023/08/02 05:53:22;;;;;;;3.60;2.20;;;20.60;66.00;22.20;99317.00;;;;5070733;28;20720;-78
2023/08/02 05:55:51;;;;;;;3.22;1.90;;;20.60;66.00;22.10;99307.00;;;;5070617;28;20588;-78
2023/08/02 05:58:18;;;;;;;3.75;2.10;;;20.60;66.10;22.10;99305.00;;;;5070853;28;20234;-78
2023/08/02 06:00:45;;;;;;;3.20;1.92;;;20.60;66.10;22.10;99297.00;;;;5071031;28;20588;-78
2023/08/02 06:03:12;;;;;;;4.43;1.90;;;20.60;66.20;22.10;99289.00;;;;5070018;28;20218;-79
2023/08/02 06:05:39;;;;;;;4.05;2.08;;;20.60;66.30;22.10;99285.00;;;;5070903;28;20733;-79
2023/08/02 06:08:06;;;;;;;1.85;1.67;;;20.60;66.30;22.10;99285.00;;;;5070803;28;20650;-79
2023/08/02 06:10:33;;;;;;;2.80;1.73;;;20.60;66.40;22.10;99273.00;;;;5070952;28;20207;-80
2023/08/02 06:13:01;;;;;;;3.13;1.83;;;20.60;66.40;22.10;99268.00;;;;5070578;28;20222;-79
2023/08/02 06:15:28;;;;;;;3.50;1.95;;;20.50;66.50;22.10;99264.00;;;;5070338;28;20206;-80
2023/08/02 06:17:55;;;;;;;1.98;1.67;;;20.50;66.50;22.00;99246.00;;;;5070094;28;20230;-79
2023/08/02 06:20:22;;;;;;;2.35;1.98;;;20.50;66.60;22.00;99240.00;;;;5052606;28;20219;-80
2023/08/02 06:22:49;;;;;;;2.72;1.88;;;20.50;66.70;22.00;99238.00;;;;5049636;28;20216;-79
2023/08/02 06:25:16;;;;;;;4.30;2.00;;;20.50;66.70;22.00;99227.00;;;;5064998;28;20570;-80
2023/08/02 06:27:43;;;;;;;6.07;2.20;;;20.50;66.80;22.00;99225.00;;;;5070291;28;20198;-80
2023/08/02 06:30:12;;;;;;;2.42;1.73;;;20.50;66.80;21.90;99229.00;;;;5070632;28;20202;-79
2023/08/02 06:32:39;;;;;;;3.35;2.03;;;20.40;67.00;22.00;99217.00;;;;5069801;28;20214;-79
2023/08/02 06:35:08;;;;;;;3.13;1.95;;;20.40;66.90;21.90;99214.00;;;;5069652;28;20565;-80
2023/08/02 06:37:35;;;;;;;3.33;1.88;;;20.40;66.90;21.90;99206.00;;;;5070231;28;20230;-80
2023/08/02 06:40:02;;;;;;;3.03;2.25;;;20.40;67.10;21.90;99211.00;;;;5070381;28;20203;-79
2023/08/02 06:42:29;;;;;;;2.85;2.03;;;20.40;67.20;21.90;99210.00;;;;5070202;28;20207;-80
2023/08/02 06:44:57;;;;;;;3.88;2.30;;;20.40;67.30;21.90;99216.00;;;;5069494;28;20217;-79
2023/08/02 06:47:26;;;;;;;4.47;2.17;;;20.40;67.40;21.90;99208.00;;;;5070214;28;20218;-79
2023/08/02 06:49:53;;;;;;;2.75;1.90;;;20.40;67.40;21.90;99188.00;;;;5069750;28;20203;-79
2023/08/02 06:52:19;;;;;;;4.68;2.05;;;20.30;67.40;21.90;99180.00;;;;5068725;28;20195;-79
2023/08/02 06:54:46;;;;;;;2.63;1.90;;;20.40;67.50;21.90;99178.00;;;;5049385;28;20574;-79
2023/08/02 06:57:13;;;;;;;1.80;1.48;;;20.40;67.60;21.90;99160.00;;;;5049898;28;20207;-79
2023/08/02 06:59:40;;;;;;;3.17;1.90;;;20.40;67.70;21.90;99146.00;;;;5049720;28;20206;-79
2023/08/02 07:02:07;;;;;;;2.88;1.90;;;20.40;67.70;21.90;99131.00;;;;5049412;28;20200;-79
2023/08/02 07:04:35;;;;;;;2.22;1.92;;;20.40;67.80;21.90;99127.00;;;;5049826;28;20393;-79
2023/08/02 07:07:02;;;;;;;2.03;1.52;;;20.40;67.90;21.90;99117.00;;;;5049472;28;20772;-79
2023/08/02 07:09:29;;;;;;;3.97;1.70;;;20.40;67.80;21.90;99123.00;;;;5050229;28;20215;-79
2023/08/02 07:11:57;;;;;;;2.20;1.80;;;20.40;67.80;21.90;99108.00;;;;5049589;28;20207;-79
2023/08/02 07:14:23;;;;;;;2.38;1.52;;;20.40;67.90;21.90;99100.00;;;;5048843;28;20713;-80
2023/08/02 07:16:50;;;;;;;2.70;1.85;;;20.40;67.90;22.00;99096.00;;;;5054169;28;20203;-79
2023/08/02 07:19:17;;;;;;;1.88;1.55;;;20.40;68.10;22.00;99087.00;;;;5069472;28;20662;-79
2023/08/02 07:21:46;;;;;;;2.90;1.80;;;20.40;68.10;22.00;99074.00;;;;5068942;28;20677;-79
2023/08/02 07:24:13;;;;;;;2.50;1.60;;;20.40;68.20;22.00;99077.00;;;;5069324;28;20696;-79
2023/08/02 07:26:39;;;;;;;1.90;1.50;;;20.40;68.10;22.00;99067.00;;;;5067439;28;20211;-79
2023/08/02 07:29:06;;;;;;;3.50;1.40;;;20.40;68.90;22.00;99059.00;;;;5068918;28;20207;-79
2023/08/02 07:31:33;;;;;;;1.90;1.60;;;20.50;68.30;22.00;99052.00;;;;5069165;28;20662;-79
2023/08/02 07:34:00;;;;;;;1.33;1.10;;;20.50;68.40;22.00;99057.00;;;;5069120;28;20234;-78
2023/08/02 07:36:27;;;;;;;1.70;1.15;;;20.50;68.30;22.10;99057.00;;;;5068064;28;20741;-79
2023/08/02 07:38:55;;;;;;;1.70;1.38;;;20.50;68.40;22.00;99052.00;;;;5068571;28;20203;-79
2023/08/02 07:41:22;;;;;;;1.65;1.25;;;20.50;68.40;22.10;99051.00;;;;5068703;28;20222;-79
2023/08/02 07:43:49;;;;;;;1.33;1.23;;;20.50;68.40;22.10;99032.00;;;;5063294;28;20204;-78
2023/08/02 07:46:18;;;;;;;2.72;1.15;;;20.50;68.30;22.10;99025.00;;;;5048802;28;20309;-79
2023/08/02 07:48:45;;;;;;;1.10;1.00;;;20.60;68.50;22.10;99015.00;;;;5048796;28;20548;-79
2023/08/02 07:51:12;;;;;;;1.33;1.00;;;20.60;68.50;22.10;99018.00;;;;5048859;28;20200;-79
2023/08/02 07:53:39;;;;;;;1.30;1.10;;;20.60;68.50;22.20;99018.00;;;;5048568;28;20234;-79
2023/08/02 07:56:08;;;;;;;2.15;1.02;;;20.60;68.50;22.10;99013.00;;;;5067997;28;20203;-79
2023/08/02 07:58:35;;;;;;;1.20;0.82;;;20.60;68.50;22.20;99009.00;;;;5068411;28;20199;-78
2023/08/02 08:01:07;;;;;;;1.27;0.90;;;20.60;68.50;22.10;98995.00;;;;5067850;28;20215;-78
2023/08/02 08:03:34;;;;;;;1.83;0.77;;;20.60;68.70;22.20;98994.00;;;;5069046;28;20690;-78
2023/08/02 08:06:09;;;;;;;1.42;1.05;;;20.60;68.50;22.10;98985.00;;;;5067854;28;20686;-79
2023/08/02 08:08:36;;;;;;;0.80;0.70;;;20.60;68.60;22.20;98975.00;;;;5068428;28;20213;-79
2023/08/02 08:11:03;;;;;;;1.40;0.80;;;20.70;68.60;22.20;98978.00;;;;5068421;28;20257;-79
2023/08/02 08:13:32;;;;;;;0.40;0.40;;;20.70;68.60;22.20;98974.00;;;;5068682;28;20659;-79
2023/08/02 08:16:00;;;;;;;0.95;0.68;;;20.70;68.60;22.20;98968.00;;;;5067750;28;20199;-78
2023/08/02 08:18:27;;;;;;;1.20;0.60;;;20.70;68.70;22.20;98965.00;;;;5058655;28;20220;-79
2023/08/02 08:20:54;;;;;;;0.88;0.73;;;20.70;68.70;22.20;98961.00;;;;5048184;28;20259;-78
2023/08/02 08:23:21;;;;;;;1.42;0.70;;;20.70;68.70;22.20;98953.00;;;;5048803;28;20207;-78
2023/08/02 08:25:48;;;;;;;0.43;0.40;;;20.70;69.00;22.30;98935.00;;;;5067139;28;20205;-79
2023/08/02 08:28:15;;;;;;;0.50;0.30;;;20.70;69.00;22.30;98929.00;;;;5068175;28;20207;-78
2023/08/02 08:30:43;;;;;;;0.43;0.40;;;20.70;69.10;22.30;98948.00;;;;5068231;28;20246;-79
2023/08/02 08:33:10;;;;;;;0.50;0.50;;;20.80;69.20;22.30;98959.00;;;;5068364;28;20199;-79
2023/08/02 08:35:38;;;;;;;0.60;0.40;;;20.80;69.10;22.30;98957.00;;;;5067059;28;20553;-79
2023/08/02 08:38:05;;;;;;;0.60;0.50;;;20.80;69.10;22.30;98947.00;;;;5068213;28;20195;-79
2023/08/02 08:40:32;;;;;;;0.77;0.55;;;20.80;69.20;22.40;98946.00;;;;5068614;28;20206;-78
2023/08/02 08:43:00;;;;;;;0.40;0.30;;;20.80;69.20;22.40;98945.00;;;;5067340;28;20325;-79
2023/08/02 08:45:27;;;;;;;0.75;0.45;;;20.80;69.10;22.40;98943.00;;;;5067708;28;20199;-78
2023/08/02 08:47:55;;;;;;;0.50;0.50;;;20.80;69.10;22.40;98937.00;;;;5067507;28;20203;-78
2023/08/02 08:50:23;;;;;;;0.95;0.38;;;20.90;69.30;22.40;98938.00;;;;5067934;28;20203;-79
2023/08/02 08:52:51;;;;;;;0.65;0.40;;;20.90;69.40;22.50;98926.00;;;;5066455;28;20205;-78
2023/08/02 08:55:19;;;;;;;1.70;0.60;;;20.90;69.50;22.50;98925.00;;;;5067340;28;20735;-79
2023/08/02 08:57:49;;;;;;;0.88;0.60;;;20.90;69.50;22.50;98923.00;;;;5067715;28;20236;-79
2023/08/02 09:00:17;;;;;;;0.80;0.63;;;21.00;69.70;22.50;98923.00;;;;5067697;28;20202;-78
2023/08/02 09:02:47;;;;;;;0.40;0.38;;;21.00;69.80;22.60;98916.00;;;;5068053;28;20317;-78
2023/08/02 09:05:16;;;;;;;0.88;0.60;;;21.00;69.80;22.60;98921.00;;;;5068257;28;20199;-78
2023/08/02 09:07:43;;;;;;;0.55;0.47;;;21.00;69.90;22.70;98922.00;;;;5067416;28;20228;-78
2023/08/02 09:10:10;;;;;;;0.50;0.47;;;21.10;70.10;22.70;98915.00;;;;5067300;28;20601;-78
2023/08/02 09:12:45;;;;;;;0.43;0.40;;;21.10;70.20;22.80;98911.00;;;;5067621;28;20572;-78
2023/08/02 09:15:15;;;;;;;0.50;0.40;;;21.20;70.70;22.80;98903.00;;;;5067874;28;20256;-79
2023/08/02 09:17:48;;;;;;;0.80;0.52;;;21.20;70.60;22.90;98900.00;;;;5067632;28;20288;-79
2023/08/02 09:20:19;;;;;;;0.60;0.40;;;21.30;70.90;23.00;98889.00;;;;5067795;28;20203;-79
2023/08/02 09:22:47;;;;;;;0.60;0.60;;;21.40;70.90;23.10;98886.00;;;;5067491;28;20202;-79
2023/08/02 09:25:23;;;;;;;0.77;0.55;;;21.50;71.10;23.10;98888.00;;;;5067636;28;20203;-79
2023/08/02 09:27:51;;;;;;;0.70;0.60;;;21.60;71.40;23.30;98884.00;;;;5047186;28;20200;-78
2023/08/02 09:30:27;;;;;;;1.17;0.50;;;21.70;71.30;23.30;98880.00;;;;5047676;28;20283;-78
2023/08/02 09:33:03;;;;;;;0.52;0.50;;;21.80;71.60;23.40;98870.00;;;;5047315;28;20482;-79
2023/08/02 09:35:48;;;;;;;0.50;0.50;;;21.90;71.50;23.50;98862.00;;;;5047881;28;20315;-78
2023/08/02 09:38:16;;;;;;;1.17;0.52;;;21.90;71.30;23.60;98868.00;;;;5047998;28;20212;-79
2023/08/02 09:40:47;;;;;;;0.45;0.40;;;22.00;71.00;23.70;98867.00;;;;5047525;28;20302;-79
2023/08/02 09:43:15;;;;;;;0.70;0.57;;;22.10;71.00;23.80;98867.00;;;;5048512;28;20207;-79
2023/08/02 09:45:42;;;;;;;1.00;0.80;;;22.20;71.00;23.80;98870.00;;;;5047589;28;20243;-78
2023/08/02 09:48:10;;;;;;;0.95;0.70;;;22.30;70.90;23.90;98867.00;;;;5047799;28;20204;-79
2023/08/02 09:50:54;;;;;;;0.95;0.63;;;22.30;70.80;23.80;98877.00;;;;5047242;28;20589;-79
2023/08/02 09:53:23;;;;;;;1.02;0.73;;;22.40;71.00;24.00;98867.00;;;;5047349;28;20199;-78
2023/08/02 09:55:52;;;;;;;0.80;0.70;;;22.50;71.30;24.00;98864.00;;;;5064458;28;20237;-78
2023/08/02 09:58:23;;;;;;;0.80;0.70;;;22.50;70.50;24.00;98876.00;;;;5068010;28;20558;-78
2023/08/02 10:00:51;;;;;;;1.20;0.95;;;22.50;70.50;24.10;98860.00;;;;5069699;28;20214;-79
2023/08/02 10:03:22;;;;;;;0.57;0.52;;;22.60;70.50;24.20;98866.00;;;;5071096;28;20628;-79
2023/08/02 10:05:51;;;;;;;0.80;0.77;;;22.60;70.50;24.20;98859.00;;;;5070245;28;20213;-78
2023/08/02 10:08:18;;;;;;;0.80;0.80;;;22.70;70.60;24.30;98852.00;;;;5071127;28;20207;-78
2023/08/02 10:10:46;;;;;;;2.17;0.80;;;22.70;70.60;24.30;98851.00;;;;5070605;28;20199;-78
2023/08/02 10:13:20;;;;;;;1.00;0.88;;;22.80;70.70;24.40;98846.00;;;;5070957;28;20210;-78
2023/08/02 10:15:50;;;;;;;1.27;0.90;;;22.80;70.90;24.50;98850.00;;;;5069954;28;20222;-78
2023/08/02 10:18:18;;;;;;;0.68;0.63;;;22.90;71.10;24.60;98838.00;;;;5069800;28;20576;-78
2023/08/02 10:20:45;;;;;;;0.77;0.77;;;23.00;71.30;24.80;98831.00;;;;5070524;28;20213;-77
2023/08/02 10:23:14;;;;;;;1.50;0.93;;;23.10;71.60;24.90;98823.00;;;;5070956;28;20214;-78
2023/08/02 10:25:43;;;;;;;1.90;1.50;;;23.20;71.70;25.00;98814.00;;;;5070417;28;20195;-77
2023/08/02 10:28:12;;;;;;;1.50;1.35;;;23.40;71.90;25.20;98816.00;;;;5071080;28;20206;-77
2023/08/02 10:30:41;;;;;;;1.05;1.05;;;23.50;71.80;25.30;98818.00;;;;5069267;28;20215;-77
2023/08/02 10:33:13;;;;;;;1.50;0.77;;;23.70;71.90;25.50;98824.00;;;;5070688;28;20608;-77
2023/08/02 10:35:58;;;;;;;1.00;1.00;;;23.90;71.80;25.60;98801.00;;;;5049798;28;20223;-77
2023/08/02 10:38:48;;;;;;;5.45;0.90;;;24.00;71.00;25.70;98802.00;;;;5050402;28;20203;-77
2023/08/02 10:41:17;;;;;;;1.10;1.00;;;24.20;70.90;25.90;98788.00;;;;5050527;28;20211;-77
2023/08/02 10:44:13;;;;;;;1.00;0.90;;;24.40;71.50;25.90;98794.00;;;;5050178;28;20206;-77
2023/08/02 10:46:41;;;;;;;1.08;0.75;;;24.50;70.40;26.20;98777.00;;;;5050722;28;20252;-77
2023/08/02 10:49:38;;;;;;;1.38;1.23;;;24.60;70.20;26.20;98777.00;;;;5050145;28;20209;-78
2023/08/02 10:52:29;;;;;;;1.38;1.00;;;24.80;69.50;26.30;98772.00;;;;5050125;28;20214;-77
2023/08/02 10:58:06;;;;;;;1.40;0.88;;;25.00;68.50;26.60;98758.00;;;;5049068;28;20671;-77
2023/08/02 11:00:38;;;;;;;1.25;0.80;;;25.10;68.70;26.70;98745.00;;;;5049632;28;20409;-77
2023/08/02 11:03:05;;;;;;;1.38;1.00;;;25.20;68.60;26.80;98753.00;;;;5049566;28;20211;-77